createdAt,value
2019-03-29T00:00:48.608Z,103403.52
2019-03-29T00:03:18.577Z,103397.94
2019-03-29T00:05:48.323Z,103398.27
2019-03-29T00:08:17.914Z,103395.18
2019-03-29T00:10:47.486Z,103392.11
2019-03-29T00:13:17.057Z,103395.81
2019-03-29T00:15:46.635Z,103397.08
2019-03-29T00:18:16.224Z,103389.38
2019-03-29T00:20:47.067Z,103388.89
2019-03-29T00:23:17.178Z,103384.63
2019-03-29T00:25:46.641Z,103373.91
2019-03-29T00:28:16.229Z,103373.82
2019-03-29T00:30:45.818Z,103372.96
2019-03-29T00:33:15.414Z,103375.04
2019-03-29T00:35:45.061Z,103366.53
2019-03-29T00:38:14.756Z,103372.42
2019-03-29T00:40:44.305Z,103365.63
2019-03-29T00:43:13.862Z,103360.47
2019-03-29T00:45:43.542Z,103357.02
2019-03-29T00:48:13.192Z,103360.73
2019-03-29T00:50:42.844Z,103360.23
2019-03-29T00:53:12.726Z,103352.53
2019-03-29T00:55:42.317Z,103350.72
2019-03-29T00:58:11.902Z,103352.75
2019-03-29T01:00:41.553Z,103351.84
2019-03-29T01:03:11.261Z,103347.95
2019-03-29T01:05:40.868Z,103344.61
2019-03-29T01:08:11.243Z,103348.31
2019-03-29T01:10:40.938Z,103338.08
2019-03-29T01:13:10.493Z,103328.77
2019-03-29T01:15:40.052Z,103331.75
2019-03-29T01:18:09.646Z,103334.69
2019-03-29T01:20:39.185Z,103329.43
2019-03-29T01:23:08.733Z,103325.27
2019-03-29T01:25:38.337Z,103322.33
2019-03-29T01:28:07.888Z,103317.31
2019-03-29T01:30:37.753Z,103316.45
2019-03-29T01:33:07.341Z,103317.27
2019-03-29T01:35:37.298Z,103318.13
2019-03-29T01:38:20.841Z,103312.06
2019-03-29T01:40:38.178Z,103312.56
2019-03-29T01:43:07.721Z,103310.94
2019-03-29T01:45:37.320Z,103309.71
2019-03-29T01:48:06.862Z,103304.60
2019-03-29T01:50:36.601Z,103303.43
2019-03-29T01:53:06.189Z,103302.44
2019-03-29T01:55:35.812Z,103301.45
2019-03-29T01:58:05.392Z,103306.33
2019-03-29T02:00:36.230Z,103309.63
2019-03-29T02:03:06.083Z,103313.82
2019-03-29T02:05:35.635Z,103317.16
2019-03-29T02:08:05.370Z,103316.59
2019-03-29T02:10:34.974Z,103308.42
2019-03-29T02:13:04.519Z,103312.52
2019-03-29T02:15:34.105Z,103309.73
2019-03-29T02:18:03.711Z,103305.30
2019-03-29T02:20:34.030Z,103313.85
2019-03-29T02:23:04.098Z,103304.75
2019-03-29T02:25:33.936Z,103293.41
2019-03-29T02:28:03.537Z,103295.28
2019-03-29T02:30:33.455Z,103298.34
2019-03-29T02:33:03.291Z,103304.02
2019-03-29T02:35:32.881Z,103302.08
2019-03-29T02:38:02.431Z,103297.90
2019-03-29T02:40:32.007Z,103296.73
2019-03-29T02:43:01.584Z,103305.25
2019-03-29T02:45:31.186Z,103297.63
2019-03-29T02:48:00.763Z,103298.19
2019-03-29T02:50:30.360Z,103300.42
2019-03-29T02:52:59.910Z,103299.19
2019-03-29T02:55:29.437Z,103292.53
2019-03-29T02:57:59.057Z,103290.48
2019-03-29T03:00:28.586Z,103294.36
2019-03-29T03:02:58.162Z,103300.78
2019-03-29T03:05:27.829Z,103295.33
2019-03-29T03:07:57.514Z,103302.19
2019-03-29T03:10:27.124Z,103287.49
2019-03-29T03:12:56.783Z,103290.52
2019-03-29T03:15:26.314Z,103293.53
2019-03-29T03:17:56.176Z,103285.53
2019-03-29T03:20:25.872Z,103284.61
2019-03-29T03:22:55.847Z,103285.53
2019-03-29T03:25:25.754Z,103283.54
2019-03-29T03:27:55.341Z,103284.43
2019-03-29T03:30:25.164Z,103281.89
2019-03-29T03:32:54.808Z,103287.41
2019-03-29T03:35:24.403Z,103285.83
2019-03-29T03:37:53.980Z,103284.22
2019-03-29T03:40:23.579Z,103292.63
2019-03-29T03:42:53.322Z,103287.55
2019-03-29T03:45:22.871Z,103284.18
2019-03-29T03:47:52.480Z,103282.50
2019-03-29T03:50:41.892Z,103278.38
2019-03-29T03:53:11.817Z,103281.42
2019-03-29T03:55:42.232Z,103281.80
2019-03-29T03:58:12.939Z,103285.27
2019-03-29T04:01:00.373Z,103278.02
2019-03-29T04:03:29.984Z,103276.37
2019-03-29T04:05:59.537Z,103284.50
2019-03-29T04:08:29.227Z,103276.46
2019-03-29T04:10:58.999Z,103276.49
2019-03-29T04:13:28.658Z,103267.69
2019-03-29T04:15:58.430Z,103265.17
2019-03-29T04:18:28.073Z,103264.80
2019-03-29T04:20:57.624Z,103262.25
2019-03-29T04:23:27.219Z,103263.55
2019-03-29T04:25:56.851Z,103261.42
2019-03-29T04:28:26.417Z,103258.05
2019-03-29T04:30:55.964Z,103259.44
2019-03-29T04:33:25.568Z,103257.73
2019-03-29T04:35:55.172Z,103249.33
2019-03-29T04:38:24.767Z,103249.30
2019-03-29T04:40:54.315Z,103250.72
2019-03-29T04:43:23.908Z,103250.33
2019-03-29T04:45:53.498Z,103250.33
2019-03-29T04:48:23.178Z,103251.69
2019-03-29T04:50:52.893Z,103253.82
2019-03-29T04:53:22.438Z,103252.20
2019-03-29T04:55:52.038Z,103259.00
2019-03-29T04:58:21.582Z,103253.99
2019-03-29T05:00:51.133Z,103251.92
2019-03-29T05:03:20.718Z,103254.11
2019-03-29T05:05:50.313Z,103242.66
2019-03-29T05:08:20.222Z,103243.92
2019-03-29T05:10:49.769Z,103237.98
2019-03-29T05:13:19.453Z,103245.23
2019-03-29T05:15:49.408Z,103247.33
2019-03-29T05:18:19.036Z,103246.06
2019-03-29T05:20:48.914Z,103243.13
2019-03-29T05:23:18.497Z,103246.61
2019-03-29T05:25:48.047Z,103237.63
2019-03-29T05:28:17.666Z,103232.14
2019-03-29T05:30:47.252Z,103236.04
2019-03-29T05:33:16.832Z,103241.98
2019-03-29T05:35:46.377Z,103238.59
2019-03-29T05:38:16.074Z,103234.41
2019-03-29T05:40:45.718Z,103238.33
2019-03-29T05:43:15.272Z,103239.19
2019-03-29T05:45:44.853Z,103236.25
2019-03-29T05:48:14.358Z,103244.83
2019-03-29T05:50:43.903Z,103238.12
2019-03-29T05:53:13.486Z,103238.72
2019-03-29T05:55:43.029Z,103243.41
2019-03-29T05:58:12.606Z,103243.95
2019-03-29T06:00:42.192Z,103247.36
2019-03-29T06:03:11.739Z,103240.18
2019-03-29T06:05:41.425Z,103239.79
2019-03-29T06:08:11.107Z,103240.80
2019-03-29T06:10:48.970Z,103241.33
2019-03-29T06:13:12.026Z,103242.70
2019-03-29T06:15:41.922Z,103238.04
2019-03-29T06:18:11.474Z,103242.44
2019-03-29T06:20:41.345Z,103241.64
2019-03-29T06:23:10.908Z,103248.06
2019-03-29T06:25:40.486Z,103244.30
2019-03-29T06:28:10.084Z,103239.86
2019-03-29T06:30:39.735Z,103245.84
2019-03-29T06:33:09.395Z,103245.97
2019-03-29T06:35:42.657Z,103244.28
2019-03-29T06:38:13.607Z,103241.05
2019-03-29T06:40:43.200Z,103238.14
2019-03-29T06:43:12.667Z,103242.05
2019-03-29T06:45:48.112Z,103237.89
2019-03-29T06:48:13.731Z,103228.14
2019-03-29T06:50:43.401Z,103234.50
2019-03-29T06:53:13.046Z,103235.45
2019-03-29T06:55:42.662Z,103232.58
2019-03-29T06:58:12.315Z,103233.44
2019-03-29T07:00:41.872Z,103236.00
2019-03-29T07:03:11.457Z,103229.27
2019-03-29T07:05:41.008Z,103225.00
2019-03-29T07:08:10.603Z,103222.59
2019-03-29T07:10:40.189Z,103222.17
2019-03-29T07:13:09.790Z,103221.88
2019-03-29T07:15:39.339Z,103214.67
2019-03-29T07:18:08.929Z,103219.80
2019-03-29T07:20:38.580Z,103216.87
2019-03-29T07:23:08.275Z,103218.57
2019-03-29T07:25:38.199Z,103212.24
2019-03-29T07:28:08.165Z,103218.55
2019-03-29T07:30:37.714Z,103223.65
2019-03-29T07:33:07.730Z,103215.98
2019-03-29T07:35:37.278Z,103215.59
2019-03-29T07:38:06.883Z,103216.95
2019-03-29T07:40:36.451Z,103218.22
2019-03-29T07:43:06.045Z,103227.15
2019-03-29T07:45:36.032Z,103223.37
2019-03-29T07:48:05.662Z,103225.47
2019-03-29T07:50:35.573Z,103221.69
2019-03-29T07:53:05.136Z,103223.39
2019-03-29T07:55:37.214Z,103216.11
2019-03-29T07:58:06.045Z,103219.08
2019-03-29T08:00:35.639Z,103228.59
2019-03-29T08:03:05.189Z,103226.11
2019-03-29T08:05:35.426Z,103216.75
2019-03-29T08:08:05.105Z,103227.92
2019-03-29T08:10:34.699Z,103220.37
2019-03-29T08:13:04.251Z,103223.79
2019-03-29T08:15:33.883Z,103227.24
2019-03-29T08:18:03.491Z,103227.33
2019-03-29T08:20:43.897Z,103224.81
2019-03-29T08:23:04.351Z,103225.76
2019-03-29T08:25:34.019Z,103219.42
2019-03-29T08:28:03.723Z,103225.44
2019-03-29T08:30:33.703Z,103216.94
2019-03-29T08:33:03.307Z,103219.56
2019-03-29T08:35:32.894Z,103215.71
2019-03-29T08:38:05.993Z,103224.23
2019-03-29T08:40:34.072Z,103225.09
2019-03-29T08:43:03.663Z,103223.35
2019-03-29T08:45:33.142Z,103221.66
2019-03-29T08:48:02.691Z,103222.94
2019-03-29T08:50:32.251Z,103217.33
2019-03-29T08:53:02.438Z,103219.03
2019-03-29T08:55:45.027Z,103216.80
2019-03-29T08:58:03.761Z,103216.41
2019-03-29T09:00:34.079Z,103204.81
2019-03-29T09:03:03.747Z,103212.95
2019-03-29T09:05:33.393Z,103209.13
2019-03-29T09:08:02.945Z,103202.75
2019-03-29T09:10:32.558Z,103213.77
2019-03-29T09:13:04.437Z,103209.94
2019-03-29T09:15:33.405Z,103196.50
2019-03-29T09:18:03.342Z,103207.66
2019-03-29T09:20:34.619Z,103198.98
2019-03-29T09:23:04.241Z,103208.03
2019-03-29T09:25:34.008Z,103201.23
2019-03-29T09:28:03.553Z,103194.08
2019-03-29T09:30:33.142Z,103203.31
2019-03-29T09:33:02.705Z,103206.55
2019-03-29T09:35:32.389Z,103207.91
2019-03-29T09:38:02.146Z,103191.97
2019-03-29T09:40:31.728Z,103197.88
2019-03-29T09:43:09.006Z,103202.72
2019-03-29T09:45:33.066Z,103199.42
2019-03-29T09:48:02.628Z,103205.53
2019-03-29T09:50:32.338Z,103195.08
2019-03-29T09:53:02.153Z,103198.92
2019-03-29T09:55:31.852Z,103191.12
2019-03-29T09:58:01.606Z,103197.05
2019-03-29T10:00:31.770Z,103197.37
2019-03-29T10:03:01.380Z,103186.63
2019-03-29T10:05:31.614Z,103190.00
2019-03-29T10:08:01.487Z,103189.98
2019-03-29T10:10:34.321Z,103182.82
2019-03-29T10:13:02.373Z,103188.13
2019-03-29T10:15:32.087Z,103184.28
2019-03-29T10:18:01.877Z,103181.52
2019-03-29T10:20:31.439Z,103178.72
2019-03-29T10:23:01.419Z,103178.80
2019-03-29T10:25:31.017Z,103183.95
2019-03-29T10:28:00.496Z,103181.45
2019-03-29T10:30:46.587Z,103162.78
2019-03-29T10:33:15.664Z,103173.59
2019-03-29T10:35:51.883Z,103161.02
2019-03-29T10:38:18.472Z,103162.63
2019-03-29T10:40:47.972Z,103156.78
2019-03-29T10:43:17.521Z,103146.48
2019-03-29T10:45:47.121Z,103147.92
2019-03-29T10:48:16.670Z,103152.21
2019-03-29T10:50:46.326Z,103142.50
2019-03-29T10:53:15.968Z,103161.22
2019-03-29T10:55:45.569Z,103161.44
2019-03-29T10:58:15.126Z,103157.06
2019-03-29T11:00:44.781Z,103153.41
2019-03-29T11:03:14.381Z,103147.33
2019-03-29T11:05:44.086Z,103147.86
2019-03-29T11:08:13.683Z,103149.51
2019-03-29T11:10:43.334Z,103151.98
2019-03-29T11:13:14.366Z,103129.56
2019-03-29T11:15:44.245Z,103130.10
2019-03-29T11:18:13.860Z,103126.53
2019-03-29T11:20:43.522Z,103121.34
2019-03-29T11:23:13.097Z,103121.21
2019-03-29T11:25:42.691Z,103115.78
2019-03-29T11:28:12.398Z,103126.55
2019-03-29T11:30:43.090Z,103112.30
2019-03-29T11:33:12.956Z,103121.59
2019-03-29T11:35:42.534Z,103114.94
2019-03-29T11:38:12.101Z,103109.05
2019-03-29T11:40:41.802Z,103095.13
2019-03-29T11:43:25.680Z,103094.27
2019-03-29T11:45:42.808Z,103089.59
2019-03-29T11:48:12.367Z,103085.36
2019-03-29T11:50:41.923Z,103081.53
2019-03-29T11:53:11.520Z,103082.53
2019-03-29T11:55:41.077Z,103073.81
2019-03-29T11:58:10.674Z,103083.98
2019-03-29T12:00:40.741Z,103072.82
2019-03-29T12:03:10.391Z,103080.16
2019-03-29T12:05:39.992Z,103070.91
2019-03-29T12:08:09.770Z,103072.12
2019-03-29T12:10:39.734Z,103069.30
2019-03-29T12:13:10.105Z,103067.15
2019-03-29T12:15:39.925Z,103056.94
2019-03-29T12:18:09.715Z,103054.13
2019-03-29T12:20:39.371Z,103055.83
2019-03-29T12:23:09.168Z,103056.24
2019-03-29T12:25:38.737Z,103050.77
2019-03-29T12:28:08.380Z,103049.48
2019-03-29T12:30:39.108Z,103052.70
2019-03-29T12:33:08.667Z,103052.76
2019-03-29T12:35:38.601Z,103046.48
2019-03-29T12:38:08.259Z,103041.36
2019-03-29T12:40:37.858Z,103031.27
2019-03-29T12:43:07.423Z,103030.13
2019-03-29T12:45:37.079Z,103024.08
2019-03-29T12:48:06.694Z,103024.20
2019-03-29T12:50:36.287Z,103022.12
2019-03-29T12:53:05.849Z,103018.23
2019-03-29T12:55:35.554Z,103016.80
2019-03-29T12:58:05.201Z,103014.56
2019-03-29T13:00:35.646Z,103019.59
2019-03-29T13:03:05.243Z,103026.42
2019-03-29T13:05:34.797Z,103021.62
2019-03-29T13:08:04.403Z,103012.46
2019-03-29T13:10:33.960Z,103012.87
2019-03-29T13:13:03.529Z,103006.19
2019-03-29T13:15:33.130Z,103014.16
2019-03-29T13:18:02.684Z,103020.41
2019-03-29T13:20:32.244Z,103016.29
2019-03-29T13:23:01.985Z,103013.05
2019-03-29T13:25:31.556Z,103010.93
2019-03-29T13:28:01.116Z,103008.70
2019-03-29T13:30:30.714Z,103005.75
2019-03-29T13:33:00.281Z,102996.59
2019-03-29T13:35:29.975Z,102993.16
2019-03-29T13:37:59.703Z,102990.77
2019-03-29T13:40:29.262Z,102985.77
2019-03-29T13:42:58.864Z,102990.39
2019-03-29T13:45:28.433Z,102984.00
2019-03-29T13:47:57.978Z,102980.19
2019-03-29T13:50:27.587Z,102976.40
2019-03-29T13:52:57.079Z,102970.66
2019-03-29T13:55:26.667Z,102961.67
2019-03-29T13:57:56.304Z,102966.36
2019-03-29T14:00:25.899Z,102968.73
2019-03-29T14:02:55.380Z,102964.36
2019-03-29T14:05:25.344Z,102963.54
2019-03-29T14:07:54.933Z,102963.62
2019-03-29T14:10:24.536Z,102960.52
2019-03-29T14:12:54.193Z,102936.98
2019-03-29T14:15:23.775Z,102938.72
2019-03-29T14:17:53.346Z,102947.34
2019-03-29T14:20:33.809Z,102942.34
2019-03-29T14:23:04.546Z,102927.47
2019-03-29T14:25:34.267Z,102924.49
2019-03-29T14:28:03.967Z,102918.68
2019-03-29T14:30:33.662Z,102914.44
2019-03-29T14:33:03.320Z,102913.68
2019-03-29T14:35:33.013Z,102902.44
2019-03-29T14:38:02.623Z,102910.88
2019-03-29T14:40:32.179Z,102905.45
2019-03-29T14:43:02.154Z,102891.39
2019-03-29T14:45:31.738Z,102888.38
2019-03-29T14:48:01.356Z,102881.82
2019-03-29T14:50:31.215Z,102877.13
2019-03-29T14:53:00.775Z,102877.63
2019-03-29T14:55:30.374Z,102873.55
2019-03-29T14:57:59.975Z,102872.61
2019-03-29T15:00:40.897Z,102872.18
2019-03-29T15:03:10.522Z,102869.75
2019-03-29T15:05:40.741Z,102869.39
2019-03-29T15:08:10.496Z,102868.90
2019-03-29T15:10:40.182Z,102865.46
2019-03-29T15:13:09.727Z,102858.38
2019-03-29T15:15:39.295Z,102860.58
2019-03-29T15:18:08.888Z,102862.89
2019-03-29T15:20:52.169Z,102846.12
2019-03-29T15:23:09.776Z,102843.50
2019-03-29T15:25:40.825Z,102840.36
2019-03-29T15:28:10.431Z,102841.35
2019-03-29T15:30:40.012Z,102835.44
2019-03-29T15:33:09.547Z,102833.67
2019-03-29T15:35:39.099Z,102838.16
2019-03-29T15:38:08.700Z,102837.05
2019-03-29T15:40:38.257Z,102835.82
2019-03-29T15:43:07.850Z,102833.84
2019-03-29T15:45:37.422Z,102834.61
2019-03-29T15:48:06.976Z,102824.86
2019-03-29T15:50:36.906Z,102827.39
2019-03-29T15:53:06.465Z,102822.75
2019-03-29T15:55:36.019Z,102822.81
2019-03-29T15:58:05.657Z,102818.88
2019-03-29T16:00:35.226Z,102812.47
2019-03-29T16:03:04.786Z,102814.78
2019-03-29T16:05:34.376Z,102808.10
2019-03-29T16:08:03.978Z,102797.96
2019-03-29T16:10:33.829Z,102799.22
2019-03-29T16:13:03.401Z,102800.36
2019-03-29T16:15:36.358Z,102805.91
2019-03-29T16:18:04.335Z,102802.08
2019-03-29T16:20:33.915Z,102803.81
2019-03-29T16:23:03.507Z,102800.54
2019-03-29T16:25:33.100Z,102798.00
2019-03-29T16:28:02.655Z,102792.09
2019-03-29T16:30:32.256Z,102800.20
2019-03-29T16:33:01.818Z,102796.80
2019-03-29T16:35:31.383Z,102789.95
2019-03-29T16:38:01.017Z,102787.08
2019-03-29T16:40:31.218Z,102783.30
2019-03-29T16:43:00.858Z,102786.30
2019-03-29T16:45:30.450Z,102791.86
2019-03-29T16:48:00.005Z,102786.41
2019-03-29T16:50:29.513Z,102778.80
2019-03-29T16:52:59.166Z,102782.23
2019-03-29T16:55:28.950Z,102783.95
2019-03-29T16:57:58.505Z,102784.41
2019-03-29T17:00:28.055Z,102780.16
2019-03-29T17:02:57.655Z,102774.65
2019-03-29T17:05:27.214Z,102778.08
2019-03-29T17:07:56.819Z,102779.79
2019-03-29T17:10:26.371Z,102774.70
2019-03-29T17:12:56.170Z,102776.84
2019-03-29T17:15:25.762Z,102772.99
2019-03-29T17:17:55.333Z,102772.14
2019-03-29T17:20:24.924Z,102771.72
2019-03-29T17:22:54.485Z,102779.36
2019-03-29T17:25:24.074Z,102772.13
2019-03-29T17:27:53.950Z,102772.55
2019-03-29T17:30:37.127Z,102768.72
2019-03-29T17:33:06.675Z,102754.24
2019-03-29T17:35:36.362Z,102753.38
2019-03-29T17:38:05.989Z,102747.42
2019-03-29T17:40:35.587Z,102748.22
2019-03-29T17:43:05.242Z,102743.95
2019-03-29T17:45:34.850Z,102746.50
2019-03-29T17:48:04.471Z,102742.23
2019-03-29T17:50:34.061Z,102741.35
2019-03-29T17:53:03.679Z,102743.43
2019-03-29T17:55:33.283Z,102740.44
2019-03-29T17:58:02.839Z,102738.70
2019-03-29T18:00:32.391Z,102742.51
2019-03-29T18:03:01.985Z,102736.91
2019-03-29T18:05:31.887Z,102737.69
2019-03-29T18:08:01.603Z,102734.21
2019-03-29T18:10:31.175Z,102731.62
2019-03-29T18:13:00.725Z,102732.86
2019-03-29T18:15:30.307Z,102736.22
2019-03-29T18:18:00.033Z,102734.92
2019-03-29T18:20:29.600Z,102733.56
2019-03-29T18:22:59.192Z,102734.38
2019-03-29T18:25:28.733Z,102736.83
2019-03-29T18:27:58.538Z,102735.53
2019-03-29T18:30:46.082Z,102732.49
2019-03-29T18:33:15.657Z,102733.31
2019-03-29T18:35:45.213Z,102732.84
2019-03-29T18:38:14.764Z,102737.47
2019-03-29T18:40:44.361Z,102733.20
2019-03-29T18:43:14.047Z,102738.20
2019-03-29T18:45:43.645Z,102733.92
2019-03-29T18:48:13.192Z,102736.88
2019-03-29T18:50:42.864Z,102735.98
2019-03-29T18:53:12.922Z,102734.23
2019-03-29T18:55:42.652Z,102738.40
2019-03-29T18:58:12.351Z,102733.67
2019-03-29T19:00:41.897Z,102733.16
2019-03-29T19:03:12.276Z,102727.56
2019-03-29T19:05:41.827Z,102724.13
2019-03-29T19:08:11.418Z,102721.53
2019-03-29T19:10:41.068Z,102726.13
2019-03-29T19:13:10.652Z,102717.20
2019-03-29T19:15:40.253Z,102718.41
2019-03-29T19:18:09.896Z,102722.20
2019-03-29T19:20:39.438Z,102720.06
2019-03-29T19:23:09.054Z,102717.09
2019-03-29T19:25:38.596Z,102720.03
2019-03-29T19:28:08.172Z,102719.58
2019-03-29T19:30:38.165Z,102723.77
2019-03-29T19:33:07.728Z,102725.41
2019-03-29T19:35:37.314Z,102724.92
2019-03-29T19:38:06.958Z,102731.68
2019-03-29T19:40:36.566Z,102727.36
2019-03-29T19:43:06.112Z,102721.38
2019-03-29T19:45:35.826Z,102723.03
2019-03-29T19:48:05.386Z,102727.66
2019-03-29T19:50:34.975Z,102716.59
2019-03-29T19:53:04.642Z,102718.63
2019-03-29T19:55:34.215Z,102719.00
2019-03-29T19:58:03.881Z,102724.06
2019-03-29T20:00:38.925Z,102722.75
2019-03-29T20:03:08.499Z,102726.11
2019-03-29T20:05:38.065Z,102717.94
2019-03-29T20:08:07.829Z,102720.83
2019-03-29T20:10:37.530Z,102717.80
2019-03-29T20:13:07.275Z,102715.70
2019-03-29T20:15:37.016Z,102718.16
2019-03-29T20:18:06.747Z,102712.22
2019-03-29T20:20:36.584Z,102715.59
2019-03-29T20:23:06.637Z,102712.96
2019-03-29T20:25:36.224Z,102703.61
2019-03-29T20:28:06.064Z,102707.81
2019-03-29T20:30:35.648Z,102703.55
2019-03-29T20:33:05.205Z,102708.55
2019-03-29T20:35:34.824Z,102702.11
2019-03-29T20:38:04.512Z,102701.23
2019-03-29T20:40:34.212Z,102703.77
2019-03-29T20:43:04.150Z,102705.82
2019-03-29T20:45:33.679Z,102697.74
2019-03-29T20:48:03.342Z,102697.36
2019-03-29T20:50:32.886Z,102693.96
2019-03-29T20:53:02.438Z,102694.80
2019-03-29T20:55:32.041Z,102690.08
2019-03-29T20:58:01.644Z,102689.56
2019-03-29T21:00:31.238Z,102685.68
2019-03-29T21:03:01.285Z,102684.34
2019-03-29T21:05:30.854Z,102683.44
2019-03-29T21:08:00.554Z,102685.43
2019-03-29T21:10:30.105Z,102678.59
2019-03-29T21:12:59.679Z,102681.47
2019-03-29T21:15:29.252Z,102688.23
2019-03-29T21:17:58.805Z,102677.59
2019-03-29T21:20:28.375Z,102680.92
2019-03-29T21:22:58.321Z,102679.16
2019-03-29T21:25:27.795Z,102682.52
2019-03-29T21:27:57.398Z,102678.67
2019-03-29T21:30:26.990Z,102674.81
2019-03-29T21:32:56.573Z,102681.09
2019-03-29T21:35:26.170Z,102681.07
2019-03-29T21:37:55.672Z,102675.06
2019-03-29T21:40:25.275Z,102675.45
2019-03-29T21:42:54.917Z,102677.95
2019-03-29T21:45:28.847Z,102672.41
2019-03-29T21:48:04.162Z,102668.97
2019-03-29T21:50:27.013Z,102666.38
2019-03-29T21:52:56.570Z,102669.27
2019-03-29T21:55:26.198Z,102663.72
2019-03-29T21:57:55.740Z,102665.38
2019-03-29T22:00:25.324Z,102658.57
2019-03-29T22:02:54.874Z,102658.52
2019-03-29T22:05:24.486Z,102658.45
2019-03-29T22:07:54.009Z,102655.89
2019-03-29T22:10:23.591Z,102655.86
2019-03-29T22:12:53.188Z,102660.87
2019-03-29T22:15:23.041Z,102651.13
2019-03-29T22:17:52.689Z,102649.00
2019-03-29T22:20:22.260Z,102649.80
2019-03-29T22:22:51.770Z,102649.80
2019-03-29T22:25:21.358Z,102640.42
2019-03-29T22:27:51.298Z,102641.22
2019-03-29T22:30:20.941Z,102646.20
2019-03-29T22:32:50.537Z,102641.42
2019-03-29T22:35:20.006Z,102639.63
2019-03-29T22:37:49.572Z,102638.23
2019-03-29T22:40:19.300Z,102634.81
2019-03-29T22:42:49.184Z,102641.59
2019-03-29T22:45:18.769Z,102640.20
2019-03-29T22:47:48.354Z,102638.87
2019-03-29T22:50:18.012Z,102633.36
2019-03-29T22:52:47.663Z,102635.38
2019-03-29T22:55:17.240Z,102633.20
2019-03-29T22:57:47.220Z,102631.80
2019-03-29T23:00:25.792Z,102626.20
2019-03-29T23:02:55.393Z,102631.61
2019-03-29T23:05:25.044Z,102629.86
2019-03-29T23:07:54.730Z,102621.70
2019-03-29T23:10:24.352Z,102624.54
2019-03-29T23:12:54.274Z,102624.47
2019-03-29T23:15:23.956Z,102621.05
2019-03-29T23:17:53.678Z,102608.77
2019-03-29T23:20:23.376Z,102604.91
2019-03-29T23:22:53.280Z,102608.20
2019-03-29T23:25:22.882Z,102605.16
2019-03-29T23:27:52.464Z,102610.55
2019-03-29T23:30:22.420Z,102607.09
2019-03-29T23:32:51.998Z,102601.91
2019-03-29T23:35:21.543Z,102593.80
2019-03-29T23:37:51.130Z,102602.95
2019-03-29T23:40:20.705Z,102596.94
2019-03-29T23:42:50.637Z,102593.86
2019-03-29T23:45:20.234Z,102596.31
2019-03-29T23:47:49.782Z,102592.86
2019-03-29T23:50:19.479Z,102592.86
2019-03-29T23:52:49.051Z,102581.00
2019-03-29T23:55:18.632Z,102580.17
2019-03-29T23:57:48.595Z,102581.81
